sensor_id;sensor_type;location;lat;lon;timestamp;temperature;humidity
62555;DHT22;48610;52.144;8.624;2022-12-18T00:02:19;-4.30;99.90
62555;DHT22;48610;52.144;8.624;2022-12-18T00:05:20;-4.50;99.90
62555;DHT22;48610;52.144;8.624;2022-12-18T00:08:21;-4.40;99.90
62555;DHT22;48610;52.144;8.624;2022-12-18T00:11:24;-4.60;99.90
62555;DHT22;48610;52.144;8.624;2022-12-18T00:14:25;-4.50;99.90
62555;DHT22;48610;52.144;8.624;2022-12-18T00:17:26;-4.50;99.90
62555;DHT22;48610;52.144;8.624;2022-12-18T00:20:28;-4.60;99.90
62555;DHT22;48610;52.144;8.624;2022-12-18T00:23:29;-4.50;99.90
62555;DHT22;48610;52.144;8.624;2022-12-18T00:26:33;-4.30;99.90
62555;DHT22;48610;52.144;8.624;2022-12-18T00:29:34;-4.40;99.90
62555;DHT22;48610;52.144;8.624;2022-12-18T00:32:34;-4.40;99.90
62555;DHT22;48610;52.144;8.624;2022-12-18T00:35:35;-4.30;99.90
62555;DHT22;48610;52.144;8.624;2022-12-18T00:38:36;-4.50;99.90
62555;DHT22;48610;52.144;8.624;2022-12-18T00:41:36;-4.70;99.90
62555;DHT22;48610;52.144;8.624;2022-12-18T00:44:56;-4.80;99.90
62555;DHT22;48610;52.144;8.624;2022-12-18T00:47:57;-4.60;99.90
62555;DHT22;48610;52.144;8.624;2022-12-18T00:50:58;-4.50;99.90
62555;DHT22;48610;52.144;8.624;2022-12-18T00:53:58;-4.50;99.90
62555;DHT22;48610;52.144;8.624;2022-12-18T00:56:59;-4.60;99.90
62555;DHT22;48610;52.144;8.624;2022-12-18T00:59:59;-4.50;99.90
62555;DHT22;48610;52.144;8.624;2022-12-18T01:03:00;-4.80;99.90
62555;DHT22;48610;52.144;8.624;2022-12-18T01:06:06;-4.90;99.90
62555;DHT22;48610;52.144;8.624;2022-12-18T01:09:07;-5.00;99.90
62555;DHT22;48610;52.144;8.624;2022-12-18T01:12:08;-5.00;99.90
62555;DHT22;48610;52.144;8.624;2022-12-18T01:15:10;-5.10;99.90
62555;DHT22;48610;52.144;8.624;2022-12-18T01:18:11;-5.00;99.90
62555;DHT22;48610;52.144;8.624;2022-12-18T01:21:15;-5.00;99.90
62555;DHT22;48610;52.144;8.624;2022-12-18T01:24:16;-5.00;99.90
62555;DHT22;48610;52.144;8.624;2022-12-18T01:27:16;-5.00;99.90
62555;DHT22;48610;52.144;8.624;2022-12-18T01:30:17;-5.10;99.90
62555;DHT22;48610;52.144;8.624;2022-12-18T01:33:18;-5.00;99.90
62555;DHT22;48610;52.144;8.624;2022-12-18T01:36:29;-5.00;99.90
62555;DHT22;48610;52.144;8.624;2022-12-18T01:39:30;-5.00;99.90
62555;DHT22;48610;52.144;8.624;2022-12-18T01:42:32;-4.90;99.90
62555;DHT22;48610;52.144;8.624;2022-12-18T01:45:32;-5.00;99.90
62555;DHT22;48610;52.144;8.624;2022-12-18T01:48:33;-5.00;99.90
62555;DHT22;48610;52.144;8.624;2022-12-18T01:51:34;-4.90;99.90
62555;DHT22;48610;52.144;8.624;2022-12-18T01:54:34;-4.80;99.90
62555;DHT22;48610;52.144;8.624;2022-12-18T01:57:35;-4.80;99.90
62555;DHT22;48610;52.144;8.624;2022-12-18T02:00:36;-4.80;99.90
62555;DHT22;48610;52.144;8.624;2022-12-18T02:03:37;-4.90;99.90
62555;DHT22;48610;52.144;8.624;2022-12-18T02:06:41;-4.80;99.90
62555;DHT22;48610;52.144;8.624;2022-12-18T02:09:56;-5.20;99.90
62555;DHT22;48610;52.144;8.624;2022-12-18T02:13:17;-5.00;99.90
62555;DHT22;48610;52.144;8.624;2022-12-18T02:26:46;-5.10;99.90
62555;DHT22;48610;52.144;8.624;2022-12-18T02:29:53;-5.00;99.90
62555;DHT22;48610;52.144;8.624;2022-12-18T02:32:55;-4.90;99.90
62555;DHT22;48610;52.144;8.624;2022-12-18T02:35:59;-4.80;99.90
62555;DHT22;48610;52.144;8.624;2022-12-18T02:39:01;-4.50;99.90
62555;DHT22;48610;52.144;8.624;2022-12-18T02:42:02;-4.60;99.90
62555;DHT22;48610;52.144;8.624;2022-12-18T02:45:08;-4.80;99.90
62555;DHT22;48610;52.144;8.624;2022-12-18T02:48:09;-4.80;99.90
62555;DHT22;48610;52.144;8.624;2022-12-18T02:51:20;-5.00;99.90
62555;DHT22;48610;52.144;8.624;2022-12-18T02:54:51;-5.10;99.90
62555;DHT22;48610;52.144;8.624;2022-12-18T02:58:01;-5.20;99.90
62555;DHT22;48610;52.144;8.624;2022-12-18T03:01:19;-5.30;99.90
62555;DHT22;48610;52.144;8.624;2022-12-18T03:04:38;-5.30;99.90
62555;DHT22;48610;52.144;8.624;2022-12-18T03:07:44;-5.50;99.90
62555;DHT22;48610;52.144;8.624;2022-12-18T03:10:57;-5.50;99.90
62555;DHT22;48610;52.144;8.624;2022-12-18T03:13:59;-5.50;99.90
62555;DHT22;48610;52.144;8.624;2022-12-18T03:17:04;-5.60;99.90
62555;DHT22;48610;52.144;8.624;2022-12-18T03:20:12;-5.60;99.90
62555;DHT22;48610;52.144;8.624;2022-12-18T03:23:16;-5.70;99.90
62555;DHT22;48610;52.144;8.624;2022-12-18T03:26:21;-5.70;99.90
62555;DHT22;48610;52.144;8.624;2022-12-18T03:29:28;-5.90;99.90
62555;DHT22;48610;52.144;8.624;2022-12-18T03:32:36;-6.00;99.90
62555;DHT22;48610;52.144;8.624;2022-12-18T03:35:42;-6.10;99.90
62555;DHT22;48610;52.144;8.624;2022-12-18T03:38:43;-6.20;99.90
62555;DHT22;48610;52.144;8.624;2022-12-18T03:42:21;-6.40;99.90
62555;DHT22;48610;52.144;8.624;2022-12-18T03:45:27;-6.50;99.90
62555;DHT22;48610;52.144;8.624;2022-12-18T03:48:41;-6.50;99.90
62555;DHT22;48610;52.144;8.624;2022-12-18T03:54:47;-6.50;99.90
62555;DHT22;48610;52.144;8.624;2022-12-18T03:57:48;-6.50;99.90
62555;DHT22;48610;52.144;8.624;2022-12-18T04:00:51;-6.40;99.90
62555;DHT22;48610;52.144;8.624;2022-12-18T04:03:54;-6.40;99.90
62555;DHT22;48610;52.144;8.624;2022-12-18T04:06:56;-6.30;99.90
62555;DHT22;48610;52.144;8.624;2022-12-18T04:09:59;-6.20;99.90
62555;DHT22;48610;52.144;8.624;2022-12-18T04:13:01;-6.20;99.90
62555;DHT22;48610;52.144;8.624;2022-12-18T04:16:02;-6.40;99.90
62555;DHT22;48610;52.144;8.624;2022-12-18T04:19:03;-6.80;99.90
62555;DHT22;48610;52.144;8.624;2022-12-18T04:22:04;-7.30;99.90
62555;DHT22;48610;52.144;8.624;2022-12-18T04:25:04;-7.60;99.90
62555;DHT22;48610;52.144;8.624;2022-12-18T04:28:05;-7.70;99.90
62555;DHT22;48610;52.144;8.624;2022-12-18T04:31:06;-7.70;99.90
62555;DHT22;48610;52.144;8.624;2022-12-18T04:34:07;-7.60;99.90
62555;DHT22;48610;52.144;8.624;2022-12-18T04:37:07;-7.50;99.90
62555;DHT22;48610;52.144;8.624;2022-12-18T04:40:09;-7.50;99.90
62555;DHT22;48610;52.144;8.624;2022-12-18T04:43:09;-7.50;99.90
62555;DHT22;48610;52.144;8.624;2022-12-18T04:46:10;-7.40;99.90
62555;DHT22;48610;52.144;8.624;2022-12-18T04:49:11;-7.50;99.90
62555;DHT22;48610;52.144;8.624;2022-12-18T04:52:12;-7.60;99.90
62555;DHT22;48610;52.144;8.624;2022-12-18T04:55:13;-7.50;99.90
62555;DHT22;48610;52.144;8.624;2022-12-18T04:58:13;-7.60;99.90
62555;DHT22;48610;52.144;8.624;2022-12-18T05:01:16;-7.60;99.90
62555;DHT22;48610;52.144;8.624;2022-12-18T05:04:16;-7.70;99.90
62555;DHT22;48610;52.144;8.624;2022-12-18T05:07:17;-7.80;99.90
62555;DHT22;48610;52.144;8.624;2022-12-18T05:10:18;-7.80;99.90
62555;DHT22;48610;52.144;8.624;2022-12-18T05:13:18;-7.90;99.90
62555;DHT22;48610;52.144;8.624;2022-12-18T05:16:19;-7.80;99.90
62555;DHT22;48610;52.144;8.624;2022-12-18T05:19:19;-7.60;99.90
62555;DHT22;48610;52.144;8.624;2022-12-18T05:22:20;-7.40;99.90
62555;DHT22;48610;52.144;8.624;2022-12-18T05:25:21;-7.30;99.90
62555;DHT22;48610;52.144;8.624;2022-12-18T05:28:23;-7.20;99.90
62555;DHT22;48610;52.144;8.624;2022-12-18T05:31:24;-7.20;99.90
62555;DHT22;48610;52.144;8.624;2022-12-18T05:34:25;-6.90;99.90
62555;DHT22;48610;52.144;8.624;2022-12-18T05:37:25;-6.70;99.90
62555;DHT22;48610;52.144;8.624;2022-12-18T05:40:26;-7.10;99.90
62555;DHT22;48610;52.144;8.624;2022-12-18T05:43:27;-7.20;99.90
62555;DHT22;48610;52.144;8.624;2022-12-18T05:46:28;-7.20;99.90
62555;DHT22;48610;52.144;8.624;2022-12-18T05:49:28;-7.00;99.90
62555;DHT22;48610;52.144;8.624;2022-12-18T05:52:30;-7.00;99.90
62555;DHT22;48610;52.144;8.624;2022-12-18T05:55:35;-7.40;99.90
62555;DHT22;48610;52.144;8.624;2022-12-18T05:58:36;-7.80;99.90
62555;DHT22;48610;52.144;8.624;2022-12-18T06:01:36;-8.00;99.90
62555;DHT22;48610;52.144;8.624;2022-12-18T06:04:37;-8.00;99.90
62555;DHT22;48610;52.144;8.624;2022-12-18T06:07:38;-7.90;99.90
62555;DHT22;48610;52.144;8.624;2022-12-18T06:10:39;-7.80;99.90
62555;DHT22;48610;52.144;8.624;2022-12-18T06:13:39;-7.30;99.90
62555;DHT22;48610;52.144;8.624;2022-12-18T06:16:40;-6.90;99.90
62555;DHT22;48610;52.144;8.624;2022-12-18T06:19:41;-6.70;99.90
62555;DHT22;48610;52.144;8.624;2022-12-18T06:22:41;-6.70;99.90
62555;DHT22;48610;52.144;8.624;2022-12-18T06:25:42;-6.50;99.90
62555;DHT22;48610;52.144;8.624;2022-12-18T06:28:43;-6.40;99.90
62555;DHT22;48610;52.144;8.624;2022-12-18T06:31:43;-6.30;99.90
62555;DHT22;48610;52.144;8.624;2022-12-18T06:34:44;-6.30;99.90
62555;DHT22;48610;52.144;8.624;2022-12-18T06:37:44;-6.20;99.90
62555;DHT22;48610;52.144;8.624;2022-12-18T06:40:45;-5.90;99.90
62555;DHT22;48610;52.144;8.624;2022-12-18T06:43:45;-5.80;99.90
62555;DHT22;48610;52.144;8.624;2022-12-18T06:46:46;-5.60;99.90
62555;DHT22;48610;52.144;8.624;2022-12-18T06:49:47;-5.60;99.90
62555;DHT22;48610;52.144;8.624;2022-12-18T06:52:47;-5.60;99.90
62555;DHT22;48610;52.144;8.624;2022-12-18T06:55:49;-5.80;99.90
62555;DHT22;48610;52.144;8.624;2022-12-18T06:58:50;-5.90;99.90
62555;DHT22;48610;52.144;8.624;2022-12-18T07:01:50;-6.20;99.90
62555;DHT22;48610;52.144;8.624;2022-12-18T07:04:51;-6.70;99.90
62555;DHT22;48610;52.144;8.624;2022-12-18T07:07:51;-6.90;99.90
62555;DHT22;48610;52.144;8.624;2022-12-18T07:10:52;-6.50;99.90
62555;DHT22;48610;52.144;8.624;2022-12-18T07:13:54;-6.40;99.90
62555;DHT22;48610;52.144;8.624;2022-12-18T07:16:54;-6.00;99.90
62555;DHT22;48610;52.144;8.624;2022-12-18T07:19:55;-5.90;99.90
62555;DHT22;48610;52.144;8.624;2022-12-18T07:22:56;-6.30;99.90
62555;DHT22;48610;52.144;8.624;2022-12-18T07:26:03;-6.80;99.90
62555;DHT22;48610;52.144;8.624;2022-12-18T07:29:04;-7.00;99.90
62555;DHT22;48610;52.144;8.624;2022-12-18T07:32:05;-6.60;99.90
62555;DHT22;48610;52.144;8.624;2022-12-18T07:35:07;-6.50;99.90
62555;DHT22;48610;52.144;8.624;2022-12-18T07:38:08;-7.00;99.90
62555;DHT22;48610;52.144;8.624;2022-12-18T07:41:10;-7.30;99.90
62555;DHT22;48610;52.144;8.624;2022-12-18T07:44:12;-7.30;99.90
62555;DHT22;48610;52.144;8.624;2022-12-18T07:47:12;-7.20;99.90
62555;DHT22;48610;52.144;8.624;2022-12-18T07:50:13;-7.00;99.90
62555;DHT22;48610;52.144;8.624;2022-12-18T07:53:14;-6.70;99.90
62555;DHT22;48610;52.144;8.624;2022-12-18T07:56:14;-6.40;99.90
62555;DHT22;48610;52.144;8.624;2022-12-18T07:59:15;-6.10;99.90
62555;DHT22;48610;52.144;8.624;2022-12-18T08:02:15;-5.50;99.90
62555;DHT22;48610;52.144;8.624;2022-12-18T08:05:16;-4.90;99.90
62555;DHT22;48610;52.144;8.624;2022-12-18T08:08:17;-4.20;99.90
62555;DHT22;48610;52.144;8.624;2022-12-18T08:11:17;-3.70;99.90
62555;DHT22;48610;52.144;8.624;2022-12-18T08:14:18;-3.60;99.90
62555;DHT22;48610;52.144;8.624;2022-12-18T08:17:19;-3.30;99.90
62555;DHT22;48610;52.144;8.624;2022-12-18T08:20:20;-3.10;99.90
62555;DHT22;48610;52.144;8.624;2022-12-18T08:23:21;-2.90;99.90
62555;DHT22;48610;52.144;8.624;2022-12-18T08:26:22;-2.70;99.90
62555;DHT22;48610;52.144;8.624;2022-12-18T08:29:23;-2.70;99.90
62555;DHT22;48610;52.144;8.624;2022-12-18T08:32:25;-2.70;99.90
62555;DHT22;48610;52.144;8.624;2022-12-18T08:35:25;-2.80;99.90
62555;DHT22;48610;52.144;8.624;2022-12-18T08:38:27;-2.70;99.90
62555;DHT22;48610;52.144;8.624;2022-12-18T08:41:28;-2.60;99.90
62555;DHT22;48610;52.144;8.624;2022-12-18T08:44:28;-2.40;99.90
62555;DHT22;48610;52.144;8.624;2022-12-18T08:47:38;-2.20;99.90
62555;DHT22;48610;52.144;8.624;2022-12-18T08:50:39;-2.20;99.90
62555;DHT22;48610;52.144;8.624;2022-12-18T08:53:40;-1.90;99.90
62555;DHT22;48610;52.144;8.624;2022-12-18T08:56:40;-2.00;99.90
62555;DHT22;48610;52.144;8.624;2022-12-18T08:59:41;-1.80;99.90
62555;DHT22;48610;52.144;8.624;2022-12-18T09:02:42;-2.20;99.90
62555;DHT22;48610;52.144;8.624;2022-12-18T09:05:43;-2.40;99.90
62555;DHT22;48610;52.144;8.624;2022-12-18T09:08:45;-2.50;99.90
62555;DHT22;48610;52.144;8.624;2022-12-18T09:11:46;-2.30;99.90
62555;DHT22;48610;52.144;8.624;2022-12-18T09:14:46;-2.20;99.90
62555;DHT22;48610;52.144;8.624;2022-12-18T09:17:47;-2.10;99.90
62555;DHT22;48610;52.144;8.624;2022-12-18T09:20:48;-1.60;99.90
62555;DHT22;48610;52.144;8.624;2022-12-18T09:23:51;-1.50;99.90
62555;DHT22;48610;52.144;8.624;2022-12-18T09:26:54;-1.60;99.90
62555;DHT22;48610;52.144;8.624;2022-12-18T09:29:55;-1.40;99.90
62555;DHT22;48610;52.144;8.624;2022-12-18T09:32:56;-1.70;99.90
62555;DHT22;48610;52.144;8.624;2022-12-18T09:35:56;-2.00;99.90
62555;DHT22;48610;52.144;8.624;2022-12-18T09:38:57;-2.10;99.90
62555;DHT22;48610;52.144;8.624;2022-12-18T09:41:58;-1.70;99.90
62555;DHT22;48610;52.144;8.624;2022-12-18T09:44:59;-1.50;99.90
62555;DHT22;48610;52.144;8.624;2022-12-18T09:48:01;-1.50;99.90
62555;DHT22;48610;52.144;8.624;2022-12-18T09:51:09;-0.80;99.90
62555;DHT22;48610;52.144;8.624;2022-12-18T09:54:36;-0.90;99.90
62555;DHT22;48610;52.144;8.624;2022-12-18T09:57:42;-0.70;99.90
62555;DHT22;48610;52.144;8.624;2022-12-18T10:00:45;-0.40;99.90
62555;DHT22;48610;52.144;8.624;2022-12-18T10:03:47;0.20;99.90
62555;DHT22;48610;52.144;8.624;2022-12-18T10:06:55;0.60;99.90
62555;DHT22;48610;52.144;8.624;2022-12-18T10:13:44;0.00;99.90
62555;DHT22;48610;52.144;8.624;2022-12-18T10:20:18;-0.60;99.90
62555;DHT22;48610;52.144;8.624;2022-12-18T10:23:28;-0.30;99.90
62555;DHT22;48610;52.144;8.624;2022-12-18T10:26:33;-0.60;99.90
62555;DHT22;48610;52.144;8.624;2022-12-18T10:29:34;-0.30;99.90
62555;DHT22;48610;52.144;8.624;2022-12-18T10:32:35;-0.40;99.90
62555;DHT22;48610;52.144;8.624;2022-12-18T10:35:36;-0.50;99.90
62555;DHT22;48610;52.144;8.624;2022-12-18T10:38:37;-0.40;99.90
62555;DHT22;48610;52.144;8.624;2022-12-18T10:41:38;-0.40;99.90
62555;DHT22;48610;52.144;8.624;2022-12-18T10:44:38;-0.10;99.90
62555;DHT22;48610;52.144;8.624;2022-12-18T10:47:47;-0.50;99.90
62555;DHT22;48610;52.144;8.624;2022-12-18T10:50:50;-0.40;99.90
62555;DHT22;48610;52.144;8.624;2022-12-18T10:54:02;-0.10;99.90
62555;DHT22;48610;52.144;8.624;2022-12-18T10:57:28;-0.10;99.90
62555;DHT22;48610;52.144;8.624;2022-12-18T11:00:30;0.00;99.90
62555;DHT22;48610;52.144;8.624;2022-12-18T11:07:16;-0.50;99.90
62555;DHT22;48610;52.144;8.624;2022-12-18T11:10:18;-0.20;99.90
62555;DHT22;48610;52.144;8.624;2022-12-18T11:13:22;-0.30;99.90
62555;DHT22;48610;52.144;8.624;2022-12-18T11:16:24;-0.30;99.90
62555;DHT22;48610;52.144;8.624;2022-12-18T11:19:34;-0.30;99.90
62555;DHT22;48610;52.144;8.624;2022-12-18T11:22:36;-0.30;99.90
62555;DHT22;48610;52.144;8.624;2022-12-18T11:25:39;-0.60;99.90
62555;DHT22;48610;52.144;8.624;2022-12-18T11:31:42;-0.70;99.90
62555;DHT22;48610;52.144;8.624;2022-12-18T11:34:46;-0.80;99.90
62555;DHT22;48610;52.144;8.624;2022-12-18T11:37:54;-0.80;99.90
62555;DHT22;48610;52.144;8.624;2022-12-18T11:41:28;-0.80;99.90
62555;DHT22;48610;52.144;8.624;2022-12-18T11:48:30;-0.90;99.90
62555;DHT22;48610;52.144;8.624;2022-12-18T11:51:43;-0.90;99.90
62555;DHT22;48610;52.144;8.624;2022-12-18T11:54:51;-1.00;99.90
62555;DHT22;48610;52.144;8.624;2022-12-18T11:58:03;-1.00;99.90
62555;DHT22;48610;52.144;8.624;2022-12-18T12:01:40;-1.00;99.90
62555;DHT22;48610;52.144;8.624;2022-12-18T12:25:39;-1.00;99.90
62555;DHT22;48610;52.144;8.624;2022-12-18T12:29:01;-0.90;99.90
62555;DHT22;48610;52.144;8.624;2022-12-18T12:39:16;-0.90;99.90
62555;DHT22;48610;52.144;8.624;2022-12-18T12:42:58;-0.60;99.90
62555;DHT22;48610;52.144;8.624;2022-12-18T12:46:17;-0.70;99.90
62555;DHT22;48610;52.144;8.624;2022-12-18T12:49:22;-0.70;99.90
62555;DHT22;48610;52.144;8.624;2022-12-18T12:52:28;-0.60;99.90
62555;DHT22;48610;52.144;8.624;2022-12-18T12:55:29;-0.50;99.90
62555;DHT22;48610;52.144;8.624;2022-12-18T13:01:42;-0.60;99.90
62555;DHT22;48610;52.144;8.624;2022-12-18T13:05:16;-0.60;99.90
62555;DHT22;48610;52.144;8.624;2022-12-18T13:08:27;-0.70;99.90
62555;DHT22;48610;52.144;8.624;2022-12-18T13:15:12;-0.50;99.90
62555;DHT22;48610;52.144;8.624;2022-12-18T13:18:17;-0.60;99.90
62555;DHT22;48610;52.144;8.624;2022-12-18T13:21:25;-0.50;99.90
62555;DHT22;48610;52.144;8.624;2022-12-18T13:24:30;-0.50;99.90
62555;DHT22;48610;52.144;8.624;2022-12-18T13:27:57;-0.60;99.90
62555;DHT22;48610;52.144;8.624;2022-12-18T13:31:01;-0.50;99.90
62555;DHT22;48610;52.144;8.624;2022-12-18T13:37:41;-0.50;99.90
62555;DHT22;48610;52.144;8.624;2022-12-18T13:40:53;-0.50;99.90
62555;DHT22;48610;52.144;8.624;2022-12-18T13:43:55;-0.50;99.90
62555;DHT22;48610;52.144;8.624;2022-12-18T13:47:01;-0.50;99.90
62555;DHT22;48610;52.144;8.624;2022-12-18T13:50:31;-0.50;99.90
62555;DHT22;48610;52.144;8.624;2022-12-18T13:53:59;-0.40;99.90
62555;DHT22;48610;52.144;8.624;2022-12-18T13:57:00;-0.40;99.90
62555;DHT22;48610;52.144;8.624;2022-12-18T14:00:28;-0.40;99.90
62555;DHT22;48610;52.144;8.624;2022-12-18T14:03:29;-0.30;99.90
62555;DHT22;48610;52.144;8.624;2022-12-18T14:06:31;-0.40;99.90
62555;DHT22;48610;52.144;8.624;2022-12-18T14:09:37;-0.40;99.90
62555;DHT22;48610;52.144;8.624;2022-12-18T14:12:38;-0.30;99.90
62555;DHT22;48610;52.144;8.624;2022-12-18T14:15:57;-0.30;99.90
62555;DHT22;48610;52.144;8.624;2022-12-18T14:19:01;-0.10;99.90
62555;DHT22;48610;52.144;8.624;2022-12-18T14:22:01;-0.30;99.90
62555;DHT22;48610;52.144;8.624;2022-12-18T14:25:23;-0.20;99.90
62555;DHT22;48610;52.144;8.624;2022-12-18T14:28:24;-0.20;99.90
62555;DHT22;48610;52.144;8.624;2022-12-18T14:31:28;-0.30;99.90
62555;DHT22;48610;52.144;8.624;2022-12-18T14:34:29;-0.40;99.90
62555;DHT22;48610;52.144;8.624;2022-12-18T14:37:29;-0.40;99.90
62555;DHT22;48610;52.144;8.624;2022-12-18T14:40:31;-0.40;99.90
62555;DHT22;48610;52.144;8.624;2022-12-18T14:43:34;-0.40;99.90
62555;DHT22;48610;52.144;8.624;2022-12-18T14:46:37;-0.40;99.90
62555;DHT22;48610;52.144;8.624;2022-12-18T14:49:41;-0.40;99.90
62555;DHT22;48610;52.144;8.624;2022-12-18T14:52:42;-0.30;99.90
62555;DHT22;48610;52.144;8.624;2022-12-18T14:55:46;-0.30;99.90
62555;DHT22;48610;52.144;8.624;2022-12-18T14:58:54;-0.30;99.90
62555;DHT22;48610;52.144;8.624;2022-12-18T15:05:01;-0.20;99.90
62555;DHT22;48610;52.144;8.624;2022-12-18T15:08:02;-0.40;99.90
62555;DHT22;48610;52.144;8.624;2022-12-18T15:11:03;-0.30;99.90
62555;DHT22;48610;52.144;8.624;2022-12-18T15:14:31;-0.30;99.90
62555;DHT22;48610;52.144;8.624;2022-12-18T15:17:32;-0.40;99.90
62555;DHT22;48610;52.144;8.624;2022-12-18T15:20:49;-0.30;99.90
62555;DHT22;48610;52.144;8.624;2022-12-18T15:23:51;-0.30;99.90
62555;DHT22;48610;52.144;8.624;2022-12-18T15:26:52;-0.30;99.90
62555;DHT22;48610;52.144;8.624;2022-12-18T15:30:19;-0.30;99.90
62555;DHT22;48610;52.144;8.624;2022-12-18T15:33:26;-0.30;99.90
62555;DHT22;48610;52.144;8.624;2022-12-18T15:36:27;-0.20;99.90
62555;DHT22;48610;52.144;8.624;2022-12-18T15:39:27;-0.30;99.90
62555;DHT22;48610;52.144;8.624;2022-12-18T15:42:29;-0.30;99.90
62555;DHT22;48610;52.144;8.624;2022-12-18T15:45:48;-0.40;99.90
62555;DHT22;48610;52.144;8.624;2022-12-18T15:48:53;-0.30;99.90
62555;DHT22;48610;52.144;8.624;2022-12-18T15:51:59;-0.30;99.90
62555;DHT22;48610;52.144;8.624;2022-12-18T15:55:00;-0.40;99.90
62555;DHT22;48610;52.144;8.624;2022-12-18T15:58:19;-0.40;99.90
62555;DHT22;48610;52.144;8.624;2022-12-18T16:01:23;-0.30;99.90
62555;DHT22;48610;52.144;8.624;2022-12-18T16:04:24;-0.30;99.90
62555;DHT22;48610;52.144;8.624;2022-12-18T16:07:25;-0.30;99.90
62555;DHT22;48610;52.144;8.624;2022-12-18T16:10:26;-0.30;99.90
62555;DHT22;48610;52.144;8.624;2022-12-18T16:13:27;-0.30;99.90
62555;DHT22;48610;52.144;8.624;2022-12-18T16:16:27;-0.40;99.90
62555;DHT22;48610;52.144;8.624;2022-12-18T16:19:28;-0.30;99.90
62555;DHT22;48610;52.144;8.624;2022-12-18T16:22:30;-0.30;99.90
62555;DHT22;48610;52.144;8.624;2022-12-18T16:25:31;-0.30;99.90
62555;DHT22;48610;52.144;8.624;2022-12-18T16:28:31;-0.30;99.90
62555;DHT22;48610;52.144;8.624;2022-12-18T16:31:32;-0.30;99.90
62555;DHT22;48610;52.144;8.624;2022-12-18T16:34:34;-0.20;99.90
62555;DHT22;48610;52.144;8.624;2022-12-18T16:37:34;-0.20;99.90
62555;DHT22;48610;52.144;8.624;2022-12-18T16:40:35;-0.30;99.90
62555;DHT22;48610;52.144;8.624;2022-12-18T16:43:57;-0.20;99.90
62555;DHT22;48610;52.144;8.624;2022-12-18T16:46:57;-0.20;99.90
62555;DHT22;48610;52.144;8.624;2022-12-18T16:50:02;-0.20;99.90
62555;DHT22;48610;52.144;8.624;2022-12-18T16:53:03;-0.30;99.90
62555;DHT22;48610;52.144;8.624;2022-12-18T16:56:04;-0.40;99.90
62555;DHT22;48610;52.144;8.624;2022-12-18T16:59:05;-0.30;99.90
62555;DHT22;48610;52.144;8.624;2022-12-18T17:02:14;-0.30;99.90
62555;DHT22;48610;52.144;8.624;2022-12-18T17:05:15;-0.20;99.90
62555;DHT22;48610;52.144;8.624;2022-12-18T17:08:16;-0.20;99.90
62555;DHT22;48610;52.144;8.624;2022-12-18T17:11:17;-0.30;99.90
62555;DHT22;48610;52.144;8.624;2022-12-18T17:14:20;-0.20;99.90
62555;DHT22;48610;52.144;8.624;2022-12-18T17:17:20;-0.20;99.90
62555;DHT22;48610;52.144;8.624;2022-12-18T17:20:21;-0.20;99.90
62555;DHT22;48610;52.144;8.624;2022-12-18T17:23:22;-0.30;99.90
62555;DHT22;48610;52.144;8.624;2022-12-18T17:26:22;-0.20;99.90
62555;DHT22;48610;52.144;8.624;2022-12-18T17:29:23;-0.20;99.90
62555;DHT22;48610;52.144;8.624;2022-12-18T17:32:23;-0.20;99.90
62555;DHT22;48610;52.144;8.624;2022-12-18T17:35:24;-0.20;99.90
62555;DHT22;48610;52.144;8.624;2022-12-18T17:38:25;-0.20;99.90
62555;DHT22;48610;52.144;8.624;2022-12-18T17:41:27;-0.20;99.90
62555;DHT22;48610;52.144;8.624;2022-12-18T17:44:28;-0.20;99.90
62555;DHT22;48610;52.144;8.624;2022-12-18T17:47:29;-0.10;99.90
62555;DHT22;48610;52.144;8.624;2022-12-18T17:50:31;-0.20;99.90
62555;DHT22;48610;52.144;8.624;2022-12-18T17:53:32;-0.20;99.90
62555;DHT22;48610;52.144;8.624;2022-12-18T17:56:33;-0.20;99.90
62555;DHT22;48610;52.144;8.624;2022-12-18T17:59:34;-0.10;99.90
62555;DHT22;48610;52.144;8.624;2022-12-18T18:02:35;-0.10;99.90
62555;DHT22;48610;52.144;8.624;2022-12-18T18:05:35;0.00;99.90
62555;DHT22;48610;52.144;8.624;2022-12-18T18:08:36;0.10;99.90
62555;DHT22;48610;52.144;8.624;2022-12-18T18:11:37;0.00;99.90
62555;DHT22;48610;52.144;8.624;2022-12-18T18:14:56;0.00;99.90
62555;DHT22;48610;52.144;8.624;2022-12-18T18:17:56;0.00;99.90
62555;DHT22;48610;52.144;8.624;2022-12-18T18:20:57;0.10;99.90
62555;DHT22;48610;52.144;8.624;2022-12-18T18:24:02;0.10;99.90
62555;DHT22;48610;52.144;8.624;2022-12-18T18:27:04;0.10;99.90
62555;DHT22;48610;52.144;8.624;2022-12-18T18:30:05;0.20;99.90
62555;DHT22;48610;52.144;8.624;2022-12-18T18:33:06;0.10;99.90
62555;DHT22;48610;52.144;8.624;2022-12-18T18:36:08;0.10;99.90
62555;DHT22;48610;52.144;8.624;2022-12-18T18:39:09;0.10;99.90
62555;DHT22;48610;52.144;8.624;2022-12-18T18:42:10;0.10;99.90
62555;DHT22;48610;52.144;8.624;2022-12-18T18:45:11;0.20;99.90
62555;DHT22;48610;52.144;8.624;2022-12-18T18:48:11;0.10;99.90
62555;DHT22;48610;52.144;8.624;2022-12-18T18:51:15;0.20;99.90
62555;DHT22;48610;52.144;8.624;2022-12-18T18:54:16;0.10;99.90
62555;DHT22;48610;52.144;8.624;2022-12-18T18:57:17;0.10;99.90
62555;DHT22;48610;52.144;8.624;2022-12-18T19:00:17;0.10;99.90
62555;DHT22;48610;52.144;8.624;2022-12-18T19:03:18;0.00;99.90
62555;DHT22;48610;52.144;8.624;2022-12-18T19:06:23;0.10;99.90
62555;DHT22;48610;52.144;8.624;2022-12-18T19:09:24;0.00;99.90
62555;DHT22;48610;52.144;8.624;2022-12-18T19:12:24;0.00;99.90
62555;DHT22;48610;52.144;8.624;2022-12-18T19:15:43;-0.10;99.90
62555;DHT22;48610;52.144;8.624;2022-12-18T19:18:45;-0.10;99.90
62555;DHT22;48610;52.144;8.624;2022-12-18T19:21:46;-0.20;99.90
62555;DHT22;48610;52.144;8.624;2022-12-18T19:24:47;-0.20;99.90
62555;DHT22;48610;52.144;8.624;2022-12-18T19:27:47;-0.20;99.90
62555;DHT22;48610;52.144;8.624;2022-12-18T19:30:48;-0.30;99.90
62555;DHT22;48610;52.144;8.624;2022-12-18T19:33:49;-0.20;99.90
62555;DHT22;48610;52.144;8.624;2022-12-18T19:36:49;-0.20;99.90
62555;DHT22;48610;52.144;8.624;2022-12-18T19:39:50;-0.20;99.90
62555;DHT22;48610;52.144;8.624;2022-12-18T19:42:51;-0.20;99.90
62555;DHT22;48610;52.144;8.624;2022-12-18T19:45:54;-0.40;99.90
62555;DHT22;48610;52.144;8.624;2022-12-18T19:48:55;-0.30;99.90
62555;DHT22;48610;52.144;8.624;2022-12-18T19:51:58;-0.30;99.90
62555;DHT22;48610;52.144;8.624;2022-12-18T19:54:58;-0.30;99.90
62555;DHT22;48610;52.144;8.624;2022-12-18T19:57:59;-0.40;99.90
62555;DHT22;48610;52.144;8.624;2022-12-18T20:01:00;-0.30;99.90
62555;DHT22;48610;52.144;8.624;2022-12-18T20:04:01;-0.30;99.90
62555;DHT22;48610;52.144;8.624;2022-12-18T20:07:01;-0.40;99.90
62555;DHT22;48610;52.144;8.624;2022-12-18T20:10:04;-0.30;99.90
62555;DHT22;48610;52.144;8.624;2022-12-18T20:13:05;-0.30;99.90
62555;DHT22;48610;52.144;8.624;2022-12-18T20:16:06;-0.40;99.90
62555;DHT22;48610;52.144;8.624;2022-12-18T20:19:07;-0.40;99.90
62555;DHT22;48610;52.144;8.624;2022-12-18T20:22:08;-0.40;99.90
62555;DHT22;48610;52.144;8.624;2022-12-18T20:25:08;-0.40;99.90
62555;DHT22;48610;52.144;8.624;2022-12-18T20:28:09;-0.30;99.90
62555;DHT22;48610;52.144;8.624;2022-12-18T20:31:10;-0.40;99.90
62555;DHT22;48610;52.144;8.624;2022-12-18T20:34:11;-0.40;99.90
62555;DHT22;48610;52.144;8.624;2022-12-18T20:37:11;-0.40;99.90